sensor_id;sensor_type;location;lat;lon;timestamp;pressure;altitude;pressure_sealevel;temperature;humidity
55014;BME280;40916;51.632;5.552;2023-03-13T00:00:50;998.5308451734621;;;9.563798737041687;0
55014;BME280;40916;51.632;5.552;2023-03-13T00:01:50;998.5253296346979;;;9.536283354273596;0
55014;BME280;40916;51.632;5.552;2023-03-13T00:02:50;998.500534375814;;;9.522522948591053;0
55014;BME280;40916;51.632;5.552;2023-03-13T00:03:50;998.4844635097227;;;9.515642066668075;0
55014;BME280;40916;51.632;5.552;2023-03-13T00:04:50;998.475312495534;;;9.543162878323017;0
55014;BME280;40916;51.632;5.552;2023-03-13T00:05:54;998.5037688124503;;;9.556920569562322;0
55014;BME280;40916;51.632;5.552;2023-03-13T00:06:50;998.475312495534;;;9.543162878323017;0
55014;BME280;40916;51.632;5.552;2023-03-13T00:07:50;998.4716411646193;;;9.543162878323017;0
55014;BME280;40916;51.632;5.552;2023-03-13T00:08:50;998.4220546415064;;;9.515642066668075;0
55014;BME280;40916;51.632;5.552;2023-03-13T00:09:50;998.3554823306326;;;9.494996702831923;0
55014;BME280;40916;51.632;5.552;2023-03-13T00:10:51;998.3182661181702;;;9.474347258846276;0
55014;BME280;40916;51.632;5.552;2023-03-13T00:11:51;998.3182661181702;;;9.474347258846276;0
55014;BME280;40916;51.632;5.552;2023-03-13T00:12:51;998.2539424100597;;;9.446808313183457;0
55014;BME280;40916;51.632;5.552;2023-03-13T00:13:52;998.2098957909661;;;9.446808313183457;0
55014;BME280;40916;51.632;5.552;2023-03-13T00:14:51;998.2869773855963;;;9.446808313183457;0
55014;BME280;40916;51.632;5.552;2023-03-13T00:15:58;998.1932680658532;;;9.419262097630188;0
55014;BME280;40916;51.632;5.552;2023-03-13T00:16:51;998.1184541920769;;;9.412374406728372;0
55014;BME280;40916;51.632;5.552;2023-03-13T00:17:51;998.1831090604153;;;9.405486260729347;0
55014;BME280;40916;51.632;5.552;2023-03-13T00:18:52;998.226579074974;;;9.384819090688563;0
55014;BME280;40916;51.632;5.552;2023-03-13T00:19:51;998.0822662209599;;;9.343472443250768;0
55014;BME280;40916;51.632;5.552;2023-03-13T00:20:56;998.1550426725274;;;9.322792957947044;0
55014;BME280;40916;51.632;5.552;2023-03-13T00:21:52;998.1001606723323;;;9.288318007142866;0
55014;BME280;40916;51.632;5.552;2023-03-13T00:22:52;998.0436814933131;;;9.281421644365025;0
55014;BME280;40916;51.632;5.552;2023-03-13T00:23:52;997.9623007189335;;;9.260729808149485;0
55014;BME280;40916;51.632;5.552;2023-03-13T00:24:52;998.0012137890232;;;9.253831612959399;0
55014;BME280;40916;51.632;5.552;2023-03-13T00:25:55;998.0907983121896;;;9.2262342460102;0
55014;BME280;40916;51.632;5.552;2023-03-13T00:26:53;997.9888538189131;;;9.177921174284055;0
55014;BME280;40916;51.632;5.552;2023-03-13T00:27:52;997.9704927992742;;;9.143398037385378;0
55014;BME280;40916;51.632;5.552;2023-03-13T00:28:52;997.919139213006;;;9.143398037385378;0
55014;BME280;40916;51.632;5.552;2023-03-13T00:29:52;997.9293785480119;;;9.122678626372366;0
55014;BME280;40916;51.632;5.552;2023-03-13T00:30:58;997.9197751650414;;;9.095046286351614;0
55014;BME280;40916;51.632;5.552;2023-03-13T00:31:53;997.9138113188574;;;9.0674065562653;0
55014;BME280;40916;51.632;5.552;2023-03-13T00:32:53;997.8323057027761;;;9.046671903233442;0
55014;BME280;40916;51.632;5.552;2023-03-13T00:33:53;997.9019850975129;;;9.046671903233442;0
55014;BME280;40916;51.632;5.552;2023-03-13T00:34:53;997.8101217950648;;;9.012104887730807;0
55014;BME280;40916;51.632;5.552;2023-03-13T00:35:56;997.7292271098476;;;8.977526280466932;0
55014;BME280;40916;51.632;5.552;2023-03-13T00:36:53;997.7548945635224;;;8.977526280466932;0
55014;BME280;40916;51.632;5.552;2023-03-13T00:37:53;997.6153004908981;;;8.94293606271405;0
55014;BME280;40916;51.632;5.552;2023-03-13T00:38:54;997.7063405281332;;;8.956773544274139;0
55014;BME280;40916;51.632;5.552;2023-03-13T00:39:53;997.7237704552585;;;8.936016624253913;0
55014;BME280;40916;51.632;5.552;2023-03-13T00:41:01;997.6892461229555;;;8.929096720473275;0
55014;BME280;40916;51.632;5.552;2023-03-13T00:41:54;997.6641904519041;;;8.91525551634884;0
55014;BME280;40916;51.632;5.552;2023-03-13T00:42:54;997.5883992856757;;;8.887567517631915;0
55014;BME280;40916;51.632;5.552;2023-03-13T00:43:54;997.5941938374134;;;8.880644352392874;0
55014;BME280;40916;51.632;5.552;2023-03-13T00:44:54;997.5868618397487;;;8.880644352392874;0
55014;BME280;40916;51.632;5.552;2023-03-13T00:45:54;997.5455804482765;;;8.859872056918732;0
55014;BME280;40916;51.632;5.552;2023-03-13T00:46:54;997.5177956190787;;;8.866796622187238;0
55014;BME280;40916;51.632;5.552;2023-03-13T00:47:54;997.4780524550396;;;8.852947024671717;0
55014;BME280;40916;51.632;5.552;2023-03-13T00:48:54;997.480173330552;;;8.846021525295072;0
55014;BME280;40916;51.632;5.552;2023-03-13T00:49:54;997.4236417138568;;;8.83909555863762;0
55014;BME280;40916;51.632;5.552;2023-03-13T00:50:54;997.4927155501593;;;8.852947024671717;0
55014;BME280;40916;51.632;5.552;2023-03-13T00:51:55;997.4236417138568;;;8.83909555863762;0
55014;BME280;40916;51.632;5.552;2023-03-13T00:52:55;997.4550845189651;;;8.832169124548102;0
55014;BME280;40916;51.632;5.552;2023-03-13T00:53:55;997.4068589904502;;;8.846021525295072;0
55014;BME280;40916;51.632;5.552;2023-03-13T00:54:55;997.3215748180064;;;8.825242222875211;0
55014;BME280;40916;51.632;5.552;2023-03-13T00:55:56;997.211608467916;;;8.825242222875211;0
55014;BME280;40916;51.632;5.552;2023-03-13T00:56:55;997.2828011431293;;;8.832169124548102;0
55014;BME280;40916;51.632;5.552;2023-03-13T00:57:55;997.2550214359939;;;8.83909555863762;0
55014;BME280;40916;51.632;5.552;2023-03-13T00:58:55;997.2006118387663;;;8.825242222875211;0
55014;BME280;40916;51.632;5.552;2023-03-13T00:59:55;997.1847909504268;;;8.852947024671717;0
55014;BME280;40916;51.632;5.552;2023-03-13T01:00:56;997.3103771935831;;;8.873720720628288;0
55014;BME280;40916;51.632;5.552;2023-03-13T01:01:56;997.2318568976101;;;8.866796622187238;0
55014;BME280;40916;51.632;5.552;2023-03-13T01:02:56;997.2391886507011;;;8.866796622187238;0
55014;BME280;40916;51.632;5.552;2023-03-13T01:03:56;997.1774594225192;;;8.852947024671717;0
55014;BME280;40916;51.632;5.552;2023-03-13T01:04:56;997.1151414544237;;;8.852947024671717;0
55014;BME280;40916;51.632;5.552;2023-03-13T01:05:56;997.1612562961371;;;8.846021525295072;0
55014;BME280;40916;51.632;5.552;2023-03-13T01:06:56;997.1334702650179;;;8.852947024671717;0
55014;BME280;40916;51.632;5.552;2023-03-13T01:07:56;997.0946841132171;;;8.859872056918732;0
55014;BME280;40916;51.632;5.552;2023-03-13T01:08:57;997.1292124040614;;;8.866796622187238;0
55014;BME280;40916;51.632;5.552;2023-03-13T01:09:56;997.0506943227658;;;8.859872056918732;0
55014;BME280;40916;51.632;5.552;2023-03-13T01:10:57;996.9443857328916;;;8.859872056918732;0
55014;BME280;40916;51.632;5.552;2023-03-13T01:11:56;997.0647598561754;;;8.873720720628288;0
55014;BME280;40916;51.632;5.552;2023-03-13T01:12:57;996.920257829003;;;8.866796622187238;0
55014;BME280;40916;51.632;5.552;2023-03-13T01:13:57;996.8976561739022;;;8.880644352392874;0
55014;BME280;40916;51.632;5.552;2023-03-13T01:14:57;996.9242287305138;;;8.901412449136735;0
55014;BME280;40916;51.632;5.552;2023-03-13T01:15:57;996.897042339386;;;8.89449021649627;0
55014;BME280;40916;51.632;5.552;2023-03-13T01:16:57;996.8707577498009;;;8.908334215704038;0
55014;BME280;40916;51.632;5.552;2023-03-13T01:17:57;996.7299232903367;;;8.901412449136735;0
55014;BME280;40916;51.632;5.552;2023-03-13T01:18:58;996.7461071138993;;;8.908334215704038;0
55014;BME280;40916;51.632;5.552;2023-03-13T01:19:57;996.7241099570676;;;8.908334215704038;0
55014;BME280;40916;51.632;5.552;2023-03-13T01:20:57;996.7931359590884;;;8.922176351221744;0
55014;BME280;40916;51.632;5.552;2023-03-13T01:21:57;996.7741648393693;;;8.936016624253913;0
55014;BME280;40916;51.632;5.552;2023-03-13T01:22:57;996.7728635733371;;;8.963691587674571;0
55014;BME280;40916;51.632;5.552;2023-03-13T01:23:58;996.6958642211481;;;8.963691587674571;0
55014;BME280;40916;51.632;5.552;2023-03-13T01:24:58;996.6365323221227;;;8.977526280466932;0
55014;BME280;40916;51.632;5.552;2023-03-13T01:25:58;996.6811976837962;;;8.963691587674571;0
55014;BME280;40916;51.632;5.552;2023-03-13T01:26:58;996.5836991574749;;;8.970609166355473;0
55014;BME280;40916;51.632;5.552;2023-03-13T01:27:58;996.5911751872898;;;9.005190094217639;0
55014;BME280;40916;51.632;5.552;2023-03-13T01:28:58;996.5559948698045;;;9.012104887730807;0
55014;BME280;40916;51.632;5.552;2023-03-13T01:29:58;996.562635279375;;;9.025933083895808;0
55014;BME280;40916;51.632;5.552;2023-03-13T01:30:58;996.4717324090503;;;9.046671903233442;0
55014;BME280;40916;51.632;5.552;2023-03-13T01:31:58;996.4423940809949;;;9.046671903233442;0
55014;BME280;40916;51.632;5.552;2023-03-13T01:32:58;996.4827684838659;;;9.081227345662342;0
55014;BME280;40916;51.632;5.552;2023-03-13T01:34:00;996.4277395374347;;;9.115771233664876;0
55014;BME280;40916;51.632;5.552;2023-03-13T01:34:59;996.4658771475735;;;9.122678626372366;0
55014;BME280;40916;51.632;5.552;2023-03-13T01:36:00;996.4181944619644;;;9.122678626372366;0
55014;BME280;40916;51.632;5.552;2023-03-13T01:36:59;996.2912728445675;;;9.129585557795888;0
55014;BME280;40916;51.632;5.552;2023-03-13T01:37:59;996.345529868994;;;9.143398037385378;0
55014;BME280;40916;51.632;5.552;2023-03-13T01:38:59;996.4181238016421;;;9.157208673621401;0
55014;BME280;40916;51.632;5.552;2023-03-13T01:39:59;996.3990077522642;;;9.171017467690998;0
55014;BME280;40916;51.632;5.552;2023-03-13T01:40:59;996.3578729383242;;;9.184824420780185;0
55014;BME280;40916;51.632;5.552;2023-03-13T01:41:59;996.4618711819256;;;9.2262342460102;0
55014;BME280;40916;51.632;5.552;2023-03-13T01:42:59;996.4427173409077;;;9.240033847017582;0
55014;BME280;40916;51.632;5.552;2023-03-13T01:44:00;996.295142004536;;;9.253831612959399;0
55014;BME280;40916;51.632;5.552;2023-03-13T01:44:59;996.3118222058305;;;9.281421644365025;0
55014;BME280;40916;51.632;5.552;2023-03-13T01:46:02;996.2412628200585;;;9.295213912185659;0
55014;BME280;40916;51.632;5.552;2023-03-13T01:47:00;996.2138640390285;;;9.322792957947044;0
55014;BME280;40916;51.632;5.552;2023-03-13T01:48:00;996.2138640390285;;;9.322792957947044;0
55014;BME280;40916;51.632;5.552;2023-03-13T01:49:01;996.1763001819427;;;9.336579738238566;0
55014;BME280;40916;51.632;5.552;2023-03-13T01:50:00;996.1460662981584;;;9.350364691702808;0
55014;BME280;40916;51.632;5.552;2023-03-13T01:51:01;996.0782316446348;;;9.377929122839934;0
55014;BME280;40916;51.632;5.552;2023-03-13T01:52:01;996.0341924874266;;;9.377929122839934;0
55014;BME280;40916;51.632;5.552;2023-03-13T01:53:00;996.009887437611;;;9.384819090688563;0
55014;BME280;40916;51.632;5.552;2023-03-13T01:54:02;995.9598896035284;;;9.391708602855548;0
55014;BME280;40916;51.632;5.552;2023-03-13T01:55:01;995.8562139597648;;;9.405486260729347;0
55014;BME280;40916;51.632;5.552;2023-03-13T01:56:01;995.8979612152506;;;9.412374406728372;0
55014;BME280;40916;51.632;5.552;2023-03-13T01:57:02;995.9185535531353;;;9.460578694168614;0
55014;BME280;40916;51.632;5.552;2023-03-13T01:58:01;995.903871205937;;;9.460578694168614;0
55014;BME280;40916;51.632;5.552;2023-03-13T01:59:01;995.9579824092098;;;9.474347258846276;0
55014;BME280;40916;51.632;5.552;2023-03-13T02:00:02;995.8648557468074;;;9.467463203473116;0
55014;BME280;40916;51.632;5.552;2023-03-13T02:01:01;995.7808288976743;;;9.488114008380318;0
55014;BME280;40916;51.632;5.552;2023-03-13T02:02:02;995.8215913360762;;;9.508760731830627;0
55014;BME280;40916;51.632;5.552;2023-03-13T02:03:02;995.7311637241742;;;9.515642066668075;0
55014;BME280;40916;51.632;5.552;2023-03-13T02:04:01;995.7392066096246;;;9.556920569562322;0
55014;BME280;40916;51.632;5.552;2023-03-13T02:05:02;995.7812493747442;;;9.58443052865423;0
55014;BME280;40916;51.632;5.552;2023-03-13T02:06:01;995.5746177098544;;;9.598182798819721;0
55014;BME280;40916;51.632;5.552;2023-03-13T02:07:03;995.5389257310088;;;9.58443052865423;0
55014;BME280;40916;51.632;5.552;2023-03-13T02:08:02;995.581206926555;;;9.632555581136565;0
55014;BME280;40916;51.632;5.552;2023-03-13T02:09:02;995.6905750980457;;;9.666917102011638;0
55014;BME280;40916;51.632;5.552;2023-03-13T02:10:02;995.5486614706024;;;9.673788056396646;0
55014;BME280;40916;51.632;5.552;2023-03-13T02:11:03;995.6443722494786;;;9.694398222558181;0
55014;BME280;40916;51.632;5.552;2023-03-13T02:12:03;995.6543111468761;;;9.708136087273228;0
55014;BME280;40916;51.632;5.552;2023-03-13T02:13:02;995.5834448094289;;;9.721872156479275;0
55014;BME280;40916;51.632;5.552;2023-03-13T02:14:02;995.3693289990057;;;9.73560643132246;0
55014;BME280;40916;51.632;5.552;2023-03-13T02:15:04;995.3709280990364;;;9.783662279190608;0
55014;BME280;40916;51.632;5.552;2023-03-13T02:16:03;995.4603560907447;;;9.790525609955282;0
55014;BME280;40916;51.632;5.552;2023-03-13T02:17:03;995.358898061777;;;9.81797446282259;0
55014;BME280;40916;51.632;5.552;2023-03-13T02:18:03;995.3113375364744;;;9.859134347213587;0
55014;BME280;40916;51.632;5.552;2023-03-13T02:19:17;995.2722425674933;;;9.886565353470615;0
55014;BME280;40916;51.632;5.552;2023-03-13T02:20:03;995.2967718146984;;;9.900278185004446;0
55014;BME280;40916;51.632;5.552;2023-03-13T02:21:07;995.2000470026114;;;9.913989236986868;0
55014;BME280;40916;51.632;5.552;2023-03-13T02:22:05;995.2098642458296;;;9.927698510550456;0
55014;BME280;40916;51.632;5.552;2023-03-13T02:23:05;995.3090954098764;;;9.968815672039632;0
55014;BME280;40916;51.632;5.552;2023-03-13T02:24:06;995.2588756059004;;;9.955111726946658;0
55014;BME280;40916;51.632;5.552;2023-03-13T02:25:05;995.0800306511048;;;9.982517843234497;0
55014;BME280;40916;51.632;5.552;2023-03-13T02:26:03;995.0738594873446;;;10.009916868440087;0
55014;BME280;40916;51.632;5.552;2023-03-13T02:27:03;995.166889405928;;;10.037308811574253;0
55014;BME280;40916;51.632;5.552;2023-03-13T02:28:04;994.969630248175;;;10.044155691838636;0
55014;BME280;40916;51.632;5.552;2023-03-13T02:29:03;994.97817957022;;;10.051002130176258;0
55014;BME280;40916;51.632;5.552;2023-03-13T02:30:04;994.916895957888;;;10.057848126727471;0
55014;BME280;40916;51.632;5.552;2023-03-13T02:31:04;994.8776611476205;;;10.064693681632555;0
55014;BME280;40916;51.632;5.552;2023-03-13T02:32:04;994.8628547925557;;;10.085227697873055;0
55014;BME280;40916;51.632;5.552;2023-03-13T02:33:04;994.7574489209861;;;10.092071487595337;0
55014;BME280;40916;51.632;5.552;2023-03-13T02:34:04;994.7230570016786;;;10.105757744343101;0
55014;BME280;40916;51.632;5.552;2023-03-13T02:35:05;994.779373074954;;;10.112600211648392;0
55014;BME280;40916;51.632;5.552;2023-03-13T02:36:04;994.9386123595974;;;10.119442238427727;0
55014;BME280;40916;51.632;5.552;2023-03-13T02:37:04;994.9028826264483;;;10.146805943079709;0
55014;BME280;40916;51.632;5.552;2023-03-13T02:38:05;994.8036293191483;;;10.146805943079709;0
55014;BME280;40916;51.632;5.552;2023-03-13T02:39:04;994.859941209563;;;10.153645769324399;0
55014;BME280;40916;51.632;5.552;2023-03-13T02:40:06;994.8891783711604;;;10.174162610486121;0
55014;BME280;40916;51.632;5.552;2023-03-13T02:41:04;994.9392990595021;;;10.187838308010246;0
55014;BME280;40916;51.632;5.552;2023-03-13T02:42:05;994.902535266252;;;10.187838308010246;0
55014;BME280;40916;51.632;5.552;2023-03-13T02:43:06;994.6550586398624;;;10.181000678813717;0
55014;BME280;40916;51.632;5.552;2023-03-13T02:44:05;994.7233412356834;;;10.215184436268114;0
55014;BME280;40916;51.632;5.552;2023-03-13T02:45:05;994.7279387396495;;;10.242523549551525;0
55014;BME280;40916;51.632;5.552;2023-03-13T02:46:06;994.8671610649932;;;10.283519085825109;0
55014;BME280;40916;51.632;5.552;2023-03-13T02:47:05;994.8606663473311;;;10.310840700498936;0
55014;BME280;40916;51.632;5.552;2023-03-13T02:48:05;994.830953316759;;;10.331327327802345;0
55014;BME280;40916;51.632;5.552;2023-03-13T02:49:09;994.9729505549934;;;10.344982898693093;0
55014;BME280;40916;51.632;5.552;2023-03-13T02:50:06;994.9372966516239;;;10.351810030358646;0
55014;BME280;40916;51.632;5.552;2023-03-13T02:51:07;994.8255247111537;;;10.365462986818912;0
55014;BME280;40916;51.632;5.552;2023-03-13T02:52:09;994.9211475340394;;;10.365462986818912;0
55014;BME280;40916;51.632;5.552;2023-03-13T02:53:05;994.8913921547748;;;10.385939156396926;0
55014;BME280;40916;51.632;5.552;2023-03-13T02:54:07;994.840235909431;;;10.365462986818912;0
55014;BME280;40916;51.632;5.552;2023-03-13T02:55:06;994.747596661652;;;10.406411411140446;0
55014;BME280;40916;51.632;5.552;2023-03-13T02:56:06;994.7799462309886;;;10.447344190953846;0
55014;BME280;40916;51.632;5.552;2023-03-13T02:57:06;994.6758548762539;;;10.440523146151477;0
55014;BME280;40916;51.632;5.552;2023-03-13T02:58:06;994.7931692984245;;;10.460984979454707;0
55014;BME280;40916;51.632;5.552;2023-03-13T02:59:06;994.6819674236316;;;10.501896945975464;0
55014;BME280;40916;51.632;5.552;2023-03-13T03:00:06;994.7230661667207;;;10.529162935433003;0
55014;BME280;40916;51.632;5.552;2023-03-13T03:01:06;994.7215317695159;;;10.542793336968629;0
55014;BME280;40916;51.632;5.552;2023-03-13T03:02:06;994.8587347275343;;;10.54960788991492;0
55014;BME280;40916;51.632;5.552;2023-03-13T03:03:06;994.867163556548;;;10.556422011161679;0
55014;BME280;40916;51.632;5.552;2023-03-13T03:04:06;994.8818808808386;;;10.556422011161679;0
55014;BME280;40916;51.632;5.552;2023-03-13T03:05:06;994.8167207653718;;;10.563235700844931;0
55014;BME280;40916;51.632;5.552;2023-03-13T03:06:07;994.9255567243843;;;10.576861786064775;0
55014;BME280;40916;51.632;5.552;2023-03-13T03:07:06;994.7794391398681;;;10.583674181873146;0
55014;BME280;40916;51.632;5.552;2023-03-13T03:08:06;994.8756652122457;;;10.610919456264433;0
55014;BME280;40916;51.632;5.552;2023-03-13T03:09:07;994.7405670062678;;;10.61772969833002;0
55014;BME280;40916;51.632;5.552;2023-03-13T03:10:07;994.8004964268961;;;10.624539510053836;0
55014;BME280;40916;51.632;5.552;2023-03-13T03:11:07;994.9135185857891;;;10.61772969833002;0
55014;BME280;40916;51.632;5.552;2023-03-13T03:12:07;994.8572549100207;;;10.658582118285644;0
55014;BME280;40916;51.632;5.552;2023-03-13T03:13:07;994.8866961075731;;;10.658582118285644;0
55014;BME280;40916;51.632;5.552;2023-03-13T03:14:07;994.8173159596136;;;10.638157843017968;0
55014;BME280;40916;51.632;5.552;2023-03-13T03:15:07;994.8525301257503;;;10.651774456239849;0
55014;BME280;40916;51.632;5.552;2023-03-13T03:16:08;994.8178156879661;;;10.6653893508016;0
55014;BME280;40916;51.632;5.552;2023-03-13T03:17:07;994.8293294154228;;;10.692613988268654;0
55014;BME280;40916;51.632;5.552;2023-03-13T03:18:07;994.8072468912409;;;10.692613988268654;0
55014;BME280;40916;51.632;5.552;2023-03-13T03:19:08;994.7761880848203;;;10.706223733333658;0
55014;BME280;40916;51.632;5.552;2023-03-13T03:20:08;994.6342672671209;;;10.692613988268654;0
55014;BME280;40916;51.632;5.552;2023-03-13T03:21:08;994.7189168374758;;;10.692613988268654;0
55014;BME280;40916;51.632;5.552;2023-03-13T03:22:08;994.5974631257882;;;10.692613988268654;0
55014;BME280;40916;51.632;5.552;2023-03-13T03:23:08;994.7262776726641;;;10.692613988268654;0
55014;BME280;40916;51.632;5.552;2023-03-13T03:24:08;994.7492151337883;;;10.747042686793794;0
55014;BME280;40916;51.632;5.552;2023-03-13T03:25:08;994.7355109440111;;;10.753844347697445;0
55014;BME280;40916;51.632;5.552;2023-03-13T03:26:08;994.7385586009729;;;10.774246765086101;0
55014;BME280;40916;51.632;5.552;2023-03-13T03:27:08;994.7737126581773;;;10.78784624025257;0
55014;BME280;40916;51.632;5.552;2023-03-13T03:28:08;994.6468852494284;;;10.801444007530332;0
55014;BME280;40916;51.632;5.552;2023-03-13T03:29:08;994.6652916878713;;;10.801444007530332;0
55014;BME280;40916;51.632;5.552;2023-03-13T03:30:09;994.6037136050977;;;10.808242251046039;0
55014;BME280;40916;51.632;5.552;2023-03-13T03:31:10;994.6783436565262;;;10.815040067991568;0
55014;BME280;40916;51.632;5.552;2023-03-13T03:32:09;994.7723827870295;;;10.82863442270757;0
55014;BME280;40916;51.632;5.552;2023-03-13T03:33:09;994.622120308985;;;10.808242251046039;0
55014;BME280;40916;51.632;5.552;2023-03-13T03:34:09;994.6756637548317;;;10.821837458500802;0
55014;BME280;40916;51.632;5.552;2023-03-13T03:35:09;994.7275147846799;;;10.849022758850495;0
55014;BME280;40916;51.632;5.552;2023-03-13T03:36:10;994.6762519503383;;;10.876201246915564;0
55014;BME280;40916;51.632;5.552;2023-03-13T03:37:09;994.5891133240807;;;10.910164790233;0
55014;BME280;40916;51.632;5.552;2023-03-13T03:38:09;994.6426168301958;;;10.92374723465327;0
55014;BME280;40916;51.632;5.552;2023-03-13T03:39:10;994.5817490103869;;;10.910164790233;0
55014;BME280;40916;51.632;5.552;2023-03-13T03:40:10;994.6666577422977;;;10.937327981866428;0
55014;BME280;40916;51.632;5.552;2023-03-13T03:41:10;994.6401059237313;;;10.957695922748453;0
55014;BME280;40916;51.632;5.552;2023-03-13T03:42:10;994.6484368576824;;;10.964484388923534;0
55014;BME280;40916;51.632;5.552;2023-03-13T03:43:10;994.5582960467764;;;10.97806005089133;0
55014;BME280;40916;51.632;5.552;2023-03-13T03:44:10;994.610814140916;;;10.984847246949194;0
55014;BME280;40916;51.632;5.552;2023-03-13T03:45:10;994.5934925079144;;;11.018776883276171;0
55014;BME280;40916;51.632;5.552;2023-03-13T03:46:10;994.6819972968734;;;11.04591298751999;0
55014;BME280;40916;51.632;5.552;2023-03-13T03:47:10;994.6312733468294;;;11.025561542675376;0
55014;BME280;40916;51.632;5.552;2023-03-13T03:48:10;994.5548763792153;;;11.032345779761023;0
55014;BME280;40916;51.632;5.552;2023-03-13T03:49:11;994.689363793459;;;11.04591298751999;0
55014;BME280;40916;51.632;5.552;2023-03-13T03:50:11;994.6341150807214;;;11.04591298751999;0
55014;BME280;40916;51.632;5.552;2023-03-13T03:51:11;994.6156988491183;;;11.04591298751999;0
55014;BME280;40916;51.632;5.552;2023-03-13T03:52:11;994.5383507090156;;;11.04591298751999;0
55014;BME280;40916;51.632;5.552;2023-03-13T03:53:11;994.6046491115907;;;11.04591298751999;0
55014;BME280;40916;51.632;5.552;2023-03-13T03:54:11;994.7040967880642;;;11.04591298751999;0
55014;BME280;40916;51.632;5.552;2023-03-13T03:55:11;994.696875511373;;;11.1001649524074;0
55014;BME280;40916;51.632;5.552;2023-03-13T03:56:11;994.660038681483;;;11.1001649524074;0
55014;BME280;40916;51.632;5.552;2023-03-13T03:57:11;994.631499776756;;;11.10694455275068;0
55014;BME280;40916;51.632;5.552;2023-03-13T03:58:11;994.65270102066;;;11.12728082991465;0
55014;BME280;40916;51.632;5.552;2023-03-13T03:59:11;994.6121786144024;;;11.154389982016639;0
55014;BME280;40916;51.632;5.552;2023-03-13T04:00:13;994.697831527828;;;11.161166220181865;0
55014;BME280;40916;51.632;5.552;2023-03-13T04:01:12;994.6527038929172;;;11.154389982016639;0
55014;BME280;40916;51.632;5.552;2023-03-13T04:02:12;994.6342833099804;;;11.154389982016639;0
55014;BME280;40916;51.632;5.552;2023-03-13T04:03:12;994.5946747396962;;;11.161166220181865;0
55014;BME280;40916;51.632;5.552;2023-03-13T04:04:12;994.4924515646574;;;11.140836246116177;0
55014;BME280;40916;51.632;5.552;2023-03-13T04:05:12;994.5817875069021;;;11.14761332403845;0
55014;BME280;40916;51.632;5.552;2023-03-13T04:06:12;994.6112403130855;;;11.174717437597629;0
55014;BME280;40916;51.632;5.552;2023-03-13T04:07:12;994.5420927538144;;;11.208588143577916;0
55014;BME280;40916;51.632;5.552;2023-03-13T04:08:12;994.5199854689762;;;11.208588143577916;0
55014;BME280;40916;51.632;5.552;2023-03-13T04:09:13;994.5513358148386;;;11.195041118398855;0
55014;BME280;40916;51.632;5.552;2023-03-13T04:10:13;994.54118844804;;;11.201814840436722;0
55014;BME280;40916;51.632;5.552;2023-03-13T04:11:13;994.4610327304595;;;11.208588143577916;0
55014;BME280;40916;51.632;5.552;2023-03-13T04:12:13;994.5493782954385;;;11.235677169788861;0
55014;BME280;40916;51.632;5.552;2023-03-13T04:13:13;994.4765780663938;;;11.242448380405865;0
55014;BME280;40916;51.632;5.552;2023-03-13T04:14:13;994.489284175375;;;11.283066868287232;0
55014;BME280;40916;51.632;5.552;2023-03-13T04:15:13;994.4587625062615;;;11.30337047648764;0
55014;BME280;40916;51.632;5.552;2023-03-13T04:16:13;994.4375286109605;;;11.310137511830256;0
55014;BME280;40916;51.632;5.552;2023-03-13T04:17:13;994.4512091416642;;;11.330436117503712;0
55014;BME280;40916;51.632;5.552;2023-03-13T04:18:13;994.5194840186676;;;11.316904130360605;0
55014;BME280;40916;51.632;5.552;2023-03-13T04:19:14;994.5959991440587;;;11.310137511830256;0